Sunday, April 22, 2018, 9:38 PM EDT
Back to Local

KBFD, Bradford Regional Airport

Location: Cyclone, PA, United States Lat: 41.8
Local Time: 9:38 PM EDT ( 1:38 GMT) Lon: -78.633
Time Zone: US/Eastern Elev: 2142 ft

Show me the last for .
Show Decoded

2018-04-22 20:53 METAR KBFD 230053Z AUTO 06003KT 10SM CLR 11/M11 A3034 RMK AO2 SLP279 T01111106 =
2018-04-22 19:53 METAR KBFD 222353Z AUTO 06004KT 10SM CLR 13/M11 A3032 RMK AO2 SLP276 T01281106
                 10161 20128 53002 =
2018-04-22 18:53 METAR KBFD 222253Z AUTO 06007KT 10SM CLR 15/M11 A3031 RMK AO2 SLP273 T01501111 =
2018-04-22 17:53 METAR KBFD 222153Z AUTO 06007KT 10SM CLR 16/M12 A3032 RMK AO2 SLP276 T01561122 $
                 =
2018-04-22 16:53 METAR KBFD 222053Z AUTO VRB05KT 10SM CLR 16/M13 A3032 RMK AO2 SLP275 T01611128
                 56015 $ =
2018-04-22 15:53 METAR KBFD 221953Z AUTO 36008KT 10SM CLR 16/M12 A3033 RMK AO2 SLP279 T01611117 $
                 =
2018-04-22 14:53 METAR KBFD 221853Z AUTO 08008KT 10SM CLR 15/M11 A3035 RMK AO2 SLP284 T01501111 $
                 =
2018-04-22 13:53 METAR KBFD 221753Z AUTO VRB06KT 10SM CLR 14/M12 A3036 RMK AO2 SLP290 T01441122
                 10150 20011 56014 $ =
2018-04-22 12:53 METAR KBFD 221653Z AUTO 16005KT 10SM CLR 13/M10 A3037 RMK AO2 SLP295 T01281100 $
                 =
2018-04-22 11:53 METAR KBFD 221553Z AUTO 08007KT 040V110 10SM CLR 12/M09 A3039 RMK AO2 SLP299
                 T01221089 $ =
2018-04-22 10:53 METAR KBFD 221453Z AUTO 11009KT 10SM CLR 11/M08 A3041 RMK AO2 SLP304 T01061083
                 50003 $ =
2018-04-22 09:53 METAR KBFD 221353Z AUTO 08009KT 10SM CLR 09/M08 A3041 RMK AO2 SLP306 T00941078 $
                 =
2018-04-22 08:53 METAR KBFD 221253Z AUTO 12004KT 10SM CLR 07/M05 A3041 RMK AO2 SLP306 T00671050 $
                 =
2018-04-22 07:53 METAR KBFD 221153Z AUTO 00000KT 10SM CLR 01/M03 A3040 RMK AO2 SLP307 T00111033
                 10011 21033 53009 $ =
2018-04-22 06:53 METAR KBFD 221053Z AUTO 00000KT 10SM CLR M03/M06 A3038 RMK AO2 SLP302 T10331061
                 $ =
2018-04-22 05:53 METAR KBFD 220953Z AUTO 00000KT 10SM CLR M03/M07 A3037 RMK AO2 SLP296 T10281072
                 $ =
2018-04-22 04:53 METAR KBFD 220853Z AUTO 00000KT 10SM CLR M03/M07 A3037 RMK AO2 SLP295 T10281072
                 55003 $ =
2018-04-22 03:53 METAR KBFD 220753Z AUTO 00000KT 10SM M02/M07 A3037 RMK AO2 SLP293 T10171072 $ =
2018-04-22 02:53 METAR KBFD 220653Z AUTO 00000KT 10SM CLR M01/M07 A3037 RMK AO2 SLP294 T10061072
                 =
2018-04-22 01:53 METAR KBFD 220553Z AUTO 00000KT 10SM CLR M01/M07 A3038 RMK AO2 SLP298 T10061072
                 10078 21011 56001 =
2018-04-22 00:53 METAR KBFD 220453Z AUTO 00000KT 10SM CLR M01/M06 A3038 RMK AO2 SLP299 T10061061
                 401221050 =
2018-04-21 23:53 METAR KBFD 220353Z AUTO 01003KT 10SM CLR 03/M07 A3038 RMK AO2 SLP297 T00281072 =
2018-04-21 22:53 METAR KBFD 220253Z AUTO 01005KT 10SM CLR 05/M08 A3038 RMK AO2 SLP298 T00501083
                 51007 =
2018-04-21 21:53 METAR KBFD 220153Z AUTO 02003KT 10SM CLR 06/M09 A3038 RMK AO2 SLP297 T00611089 =

Support USWX by starting your Amazon purchase here.